Time,TemperatureF,DewpointF,PressureIn,WindDirection,WindDirectionDegrees,WindSpeedMPH,WindSpeedGustMPH,Humidity,HourlyPrecipIn,Conditions,Clouds,dailyrainin,SoftwareType,DateUTC
2013-10-25 00:01:00,50.1,48.0,30.09,SSE,166,0.0,-999.0,91,-99.99,,,0.00,weatherlink.com 1.10,2013-10-25 07:01:00,
2013-10-25 00:16:00,49.6,47.0,30.10,SSE,166,0.0,-999.0,92,-99.99,,,0.00,weatherlink.com 1.10,2013-10-25 07:16:00,
2013-10-25 00:31:00,50.1,48.0,30.10,SSE,166,0.0,-999.0,92,-99.99,,,0.00,weatherlink.com 1.10,2013-10-25 07:31:00,
2013-10-25 00:46:00,50.5,48.0,30.10,SSE,166,0.0,-999.0,92,-99.99,,,0.00,weatherlink.com 1.10,2013-10-25 07:46:00,
2013-10-25 01:01:00,50.5,48.0,30.09,SSE,166,0.0,-999.0,92,-99.99,,,0.00,weatherlink.com 1.10,2013-10-25 08:01:00,
2013-10-25 01:16:00,50.2,48.0,30.10,SSE,166,0.0,-999.0,92,-99.99,,,0.00,weatherlink.com 1.10,2013-10-25 08:16:00,
2013-10-25 01:31:00,49.6,47.0,30.11,SSE,166,0.0,-999.0,92,-99.99,,,0.00,weatherlink.com 1.10,2013-10-25 08:31:00,
2013-10-25 01:46:00,49.2,47.0,30.11,SSE,166,0.0,-999.0,92,-99.99,,,0.00,weatherlink.com 1.10,2013-10-25 08:46:00,
2013-10-25 02:01:00,48.9,47.0,30.11,SSE,166,0.0,-999.0,93,-99.99,,,0.00,weatherlink.com 1.10,2013-10-25 09:01:00,
2013-10-25 02:16:00,48.5,46.0,30.11,SSE,166,0.0,-999.0,92,-99.99,,,0.00,weatherlink.com 1.10,2013-10-25 09:16:00,
2013-10-25 02:31:00,48.0,46.0,30.11,SSE,166,0.0,-999.0,93,-99.99,,,0.00,weatherlink.com 1.10,2013-10-25 09:31:00,
2013-10-25 02:46:00,48.0,46.0,30.12,SSE,166,0.0,-999.0,93,-99.99,,,0.00,weatherlink.com 1.10,2013-10-25 09:46:00,
2013-10-25 03:01:00,48.3,47.0,30.12,SSE,166,0.0,-999.0,94,-99.99,,,0.00,weatherlink.com 1.10,2013-10-25 10:01:00,
2013-10-25 03:16:00,48.5,47.0,30.12,SSE,166,0.0,-999.0,94,-99.99,,,0.00,weatherlink.com 1.10,2013-10-25 10:16:00,
2013-10-25 03:31:00,48.9,47.0,30.12,SSE,166,0.0,-999.0,94,-99.99,,,0.00,weatherlink.com 1.10,2013-10-25 10:31:00,
2013-10-25 03:46:00,49.8,49.0,30.11,SE,130,0.0,-999.0,95,-99.99,,,0.00,weatherlink.com 1.10,2013-10-25 10:46:00,
2013-10-25 04:01:00,49.8,48.0,30.11,SE,130,0.0,-999.0,94,-99.99,,,0.00,weatherlink.com 1.10,2013-10-25 11:01:00,
2013-10-25 04:16:00,48.9,47.0,30.11,SE,130,0.0,-999.0,93,-99.99,,,0.00,weatherlink.com 1.10,2013-10-25 11:16:00,
2013-10-25 04:31:00,48.6,47.0,30.11,SE,130,0.0,-999.0,93,-99.99,,,0.00,weatherlink.com 1.10,2013-10-25 11:31:00,
2013-10-25 04:46:00,48.3,47.0,30.11,SE,130,0.0,-999.0,94,-99.99,,,0.00,weatherlink.com 1.10,2013-10-25 11:46:00,
2013-10-25 05:01:00,48.0,46.0,30.11,SE,130,0.0,-999.0,93,-99.99,,,0.00,weatherlink.com 1.10,2013-10-25 12:01:00,
2013-10-25 05:16:00,47.7,46.0,30.12,SE,130,0.0,-999.0,94,-99.99,,,0.00,weatherlink.com 1.10,2013-10-25 12:16:00,
2013-10-25 05:31:00,47.4,46.0,30.12,SE,130,0.0,-999.0,94,-99.99,,,0.00,weatherlink.com 1.10,2013-10-25 12:31:00,
2013-10-25 05:46:00,47.3,46.0,30.12,SE,130,0.0,-999.0,94,-99.99,,,0.00,weatherlink.com 1.10,2013-10-25 12:46:00,
2013-10-25 06:01:00,47.1,46.0,30.12,SE,130,0.0,-999.0,94,-99.99,,,0.00,weatherlink.com 1.10,2013-10-25 13:01:00,
2013-10-25 06:16:00,47.1,46.0,30.12,SE,130,0.0,-999.0,94,-99.99,,,0.00,weatherlink.com 1.10,2013-10-25 13:16:00,
2013-10-25 06:31:00,47.6,46.0,30.12,SE,130,0.0,-999.0,94,-99.99,,,0.00,weatherlink.com 1.10,2013-10-25 13:31:00,
2013-10-25 06:46:00,47.6,46.0,30.12,SE,130,0.0,-999.0,94,-99.99,,,0.00,weatherlink.com 1.10,2013-10-25 13:46:00,
2013-10-25 07:01:00,47.4,46.0,30.12,SE,130,0.0,-999.0,95,-99.99,,,0.00,weatherlink.com 1.10,2013-10-25 14:01:00,
2013-10-25 07:16:00,47.4,46.0,30.12,SE,130,0.0,-999.0,95,-99.99,,,0.00,weatherlink.com 1.10,2013-10-25 14:16:00,
2013-10-25 07:31:00,47.4,46.0,30.13,SE,130,0.0,-999.0,95,-99.99,,,0.00,weatherlink.com 1.10,2013-10-25 14:31:00,
2013-10-25 07:46:00,47.7,46.0,30.14,SE,130,0.0,-999.0,95,-99.99,,,0.00,weatherlink.com 1.10,2013-10-25 14:46:00,
2013-10-25 08:01:00,47.9,47.0,30.14,SE,130,0.0,-999.0,95,-99.99,,,0.00,weatherlink.com 1.10,2013-10-25 15:01:00,
2013-10-25 08:16:00,48.3,47.0,30.14,SE,130,0.0,-999.0,95,-99.99,,,0.00,weatherlink.com 1.10,2013-10-25 15:16:00,
2013-10-25 08:31:00,48.9,48.0,30.14,SE,130,0.0,-999.0,95,-99.99,,,0.00,weatherlink.com 1.10,2013-10-25 15:31:00,
2013-10-25 08:46:00,49.9,49.0,30.15,SE,130,0.0,-999.0,96,-99.99,,,0.00,weatherlink.com 1.10,2013-10-25 15:46:00,
2013-10-25 09:01:00,52.5,51.0,30.15,SE,130,0.0,-999.0,96,-99.99,,,0.00,weatherlink.com 1.10,2013-10-25 16:01:00,
2013-10-25 09:17:00,54.2,53.0,30.15,WSW,245,0.0,-999.0,94,-99.99,,,0.00,weatherlink.com 1.10,2013-10-25 16:17:00,
2013-10-25 09:31:00,55.3,53.0,30.15,SW,228,0.0,-999.0,90,-99.99,,,0.00,weatherlink.com 1.10,2013-10-25 16:31:00,
2013-10-25 09:46:00,56.9,52.0,30.15,SW,234,0.0,-999.0,82,-99.99,,,0.00,weatherlink.com 1.10,2013-10-25 16:46:00,
2013-10-25 10:02:00,58.1,49.0,30.15,SW,234,0.0,-999.0,73,-99.99,,,0.00,weatherlink.com 1.10,2013-10-25 17:02:00,
2013-10-25 10:17:00,59.6,50.0,30.15,SW,234,0.0,-999.0,70,-99.99,,,0.00,weatherlink.com 1.10,2013-10-25 17:17:00,
2013-10-25 10:47:00,62.0,50.0,30.15,West,275,0.0,-999.0,65,-99.99,,,0.00,weatherlink.com 1.10,2013-10-25 17:47:00,
2013-10-25 11:02:00,63.4,51.0,30.15,WSW,250,0.0,-999.0,64,-99.99,,,0.00,weatherlink.com 1.10,2013-10-25 18:02:00,
2013-10-25 11:17:00,62.6,51.0,30.15,WSW,242,0.0,-999.0,65,-99.99,,,0.00,weatherlink.com 1.10,2013-10-25 18:17:00,
2013-10-25 11:32:00,62.9,50.0,30.15,West,271,0.0,-999.0,64,-99.99,,,0.00,weatherlink.com 1.10,2013-10-25 18:32:00,
2013-10-25 11:47:00,63.4,51.0,30.15,WSW,240,2.0,-999.0,64,-99.99,,,0.00,weatherlink.com 1.10,2013-10-25 18:47:00,
2013-10-25 12:02:00,63.7,51.0,30.15,SSW,213,0.0,-999.0,63,-99.99,,,0.00,weatherlink.com 1.10,2013-10-25 19:02:00,
2013-10-25 12:17:00,64.5,51.0,30.15,SW,235,0.0,-999.0,62,-99.99,,,0.00,weatherlink.com 1.10,2013-10-25 19:17:00,
2013-10-25 12:32:00,65.2,51.0,30.15,SW,225,0.0,-999.0,60,-99.99,,,0.00,weatherlink.com 1.10,2013-10-25 19:32:00,
2013-10-25 12:47:00,65.5,51.0,30.14,SW,231,1.0,-999.0,60,-99.99,,,0.00,weatherlink.com 1.10,2013-10-25 19:47:00,
2013-10-25 13:02:00,66.4,50.0,30.14,NNE,31,0.0,-999.0,56,-99.99,,,0.00,weatherlink.com 1.10,2013-10-25 20:02:00,
2013-10-25 13:17:00,67.1,51.0,30.13,West,275,2.0,-999.0,56,-99.99,,,0.00,weatherlink.com 1.10,2013-10-25 20:17:00,
2013-10-25 13:32:00,67.6,50.0,30.12,SW,234,0.0,-999.0,54,-99.99,,,0.00,weatherlink.com 1.10,2013-10-25 20:32:00,
2013-10-25 13:47:00,67.1,50.0,30.11,SW,229,1.0,-999.0,55,-99.99,,,0.00,weatherlink.com 1.10,2013-10-25 20:47:00,
2013-10-25 14:02:00,67.3,50.0,30.11,SSE,167,1.0,-999.0,55,-99.99,,,0.00,weatherlink.com 1.10,2013-10-25 21:02:00,
2013-10-25 14:17:00,66.9,51.0,30.11,SSW,210,0.0,-999.0,56,-99.99,,,0.00,weatherlink.com 1.10,2013-10-25 21:17:00,
2013-10-25 14:32:00,66.8,51.0,30.11,SW,230,0.0,-999.0,57,-99.99,,,0.00,weatherlink.com 1.10,2013-10-25 21:32:00,
2013-10-25 14:47:00,66.8,51.0,30.11,SW,234,0.0,-999.0,57,-99.99,,,0.00,weatherlink.com 1.10,2013-10-25 21:47:00,
2013-10-25 15:02:00,67.1,51.0,30.10,WSW,238,0.0,-999.0,56,-99.99,,,0.00,weatherlink.com 1.10,2013-10-25 22:02:00,
2013-10-25 15:17:00,66.3,51.0,30.09,WSW,238,0.0,-999.0,58,-99.99,,,0.00,weatherlink.com 1.10,2013-10-25 22:17:00,
2013-10-25 15:32:00,65.2,51.0,30.09,WSW,237,0.0,-999.0,60,-99.99,,,0.00,weatherlink.com 1.10,2013-10-25 22:32:00,
2013-10-25 15:47:00,64.3,51.0,30.10,WSW,237,0.0,-999.0,62,-99.99,,,0.00,weatherlink.com 1.10,2013-10-25 22:47:00,
2013-10-25 16:02:00,64.3,51.0,30.09,WSW,237,0.0,-999.0,62,-99.99,,,0.00,weatherlink.com 1.10,2013-10-25 23:02:00,
2013-10-25 16:17:00,64.8,51.0,30.09,East,87,0.0,-999.0,61,-99.99,,,0.00,weatherlink.com 1.10,2013-10-25 23:17:00,
2013-10-25 16:32:00,65.3,51.0,30.09,East,87,0.0,-999.0,61,-99.99,,,0.00,weatherlink.com 1.10,2013-10-25 23:32:00,
2013-10-25 16:47:00,65.2,52.0,30.09,East,99,0.0,-999.0,62,-99.99,,,0.00,weatherlink.com 1.10,2013-10-25 23:47:00,
2013-10-25 17:02:00,65.0,51.0,30.08,East,99,0.0,-999.0,61,-99.99,,,0.00,weatherlink.com 1.10,2013-10-26 00:02:00,
2013-10-25 17:17:00,65.0,51.0,30.07,SSW,213,0.0,-999.0,60,-99.99,,,0.00,weatherlink.com 1.10,2013-10-26 00:17:00,
2013-10-25 17:32:00,64.7,50.0,30.08,SSW,213,0.0,-999.0,60,-99.99,,,0.00,weatherlink.com 1.10,2013-10-26 00:32:00,
2013-10-25 17:48:00,63.7,50.0,30.08,SE,131,0.0,-999.0,62,-99.99,,,0.00,weatherlink.com 1.10,2013-10-26 00:48:00,
2013-10-25 18:03:00,62.7,50.0,30.07,SE,131,0.0,-999.0,64,-99.99,,,0.00,weatherlink.com 1.10,2013-10-26 01:03:00,
2013-10-25 18:18:00,62.0,50.0,30.07,SE,131,0.0,-999.0,65,-99.99,,,0.00,weatherlink.com 1.10,2013-10-26 01:18:00,
2013-10-25 18:33:00,60.7,50.0,30.07,SE,131,0.0,-999.0,69,-99.99,,,0.00,weatherlink.com 1.10,2013-10-26 01:33:00,
2013-10-25 18:48:00,59.6,50.0,30.08,SE,131,0.0,-999.0,71,-99.99,,,0.00,weatherlink.com 1.10,2013-10-26 01:48:00,
2013-10-25 19:03:00,58.4,50.0,30.08,SE,131,0.0,-999.0,74,-99.99,,,0.00,weatherlink.com 1.10,2013-10-26 02:03:00,
2013-10-25 19:18:00,57.5,50.0,30.08,SE,131,0.0,-999.0,76,-99.99,,,0.00,weatherlink.com 1.10,2013-10-26 02:18:00,
2013-10-25 19:33:00,56.6,50.0,30.08,SE,131,0.0,-999.0,79,-99.99,,,0.00,weatherlink.com 1.10,2013-10-26 02:33:00,
2013-10-25 19:48:00,55.7,49.0,30.08,SE,131,0.0,-999.0,79,-99.99,,,0.00,weatherlink.com 1.10,2013-10-26 02:48:00,
2013-10-25 20:03:00,55.3,50.0,30.09,SE,131,0.0,-999.0,82,-99.99,,,0.00,weatherlink.com 1.10,2013-10-26 03:03:00,
2013-10-25 20:18:00,54.7,50.0,30.08,SE,131,0.0,-999.0,83,-99.99,,,0.00,weatherlink.com 1.10,2013-10-26 03:18:00,
2013-10-25 20:33:00,54.1,49.0,30.08,SE,131,0.0,-999.0,84,-99.99,,,0.00,weatherlink.com 1.10,2013-10-26 03:33:00,
2013-10-25 20:48:00,53.8,49.0,30.09,SE,131,0.0,-999.0,85,-99.99,,,0.00,weatherlink.com 1.10,2013-10-26 03:48:00,
2013-10-25 21:03:00,53.2,49.0,30.09,SE,131,0.0,-999.0,86,-99.99,,,0.00,weatherlink.com 1.10,2013-10-26 04:03:00,
2013-10-25 21:18:00,52.9,49.0,30.09,SE,130,0.0,-999.0,87,-99.99,,,0.00,weatherlink.com 1.10,2013-10-26 04:18:00,
2013-10-25 21:33:00,52.8,49.0,30.10,SE,130,0.0,-999.0,87,-99.99,,,0.00,weatherlink.com 1.10,2013-10-26 04:33:00,
2013-10-25 21:48:00,52.6,49.0,30.10,SE,130,0.0,-999.0,88,-99.99,,,0.00,weatherlink.com 1.10,2013-10-26 04:48:00,
2013-10-25 22:03:00,52.5,49.0,30.10,SE,130,0.0,-999.0,88,-99.99,,,0.00,weatherlink.com 1.10,2013-10-26 05:03:00,
2013-10-25 22:18:00,52.3,49.0,30.10,SE,130,0.0,-999.0,88,-99.99,,,0.00,weatherlink.com 1.10,2013-10-26 05:18:00,
2013-10-25 22:33:00,52.0,49.0,30.10,SE,130,0.0,-999.0,88,-99.99,,,0.00,weatherlink.com 1.10,2013-10-26 05:33:00,
2013-10-25 22:48:00,51.7,49.0,30.10,SE,130,0.0,-999.0,89,-99.99,,,0.00,weatherlink.com 1.10,2013-10-26 05:48:00,
2013-10-25 23:03:00,51.4,48.0,30.10,SE,130,0.0,-999.0,89,-99.99,,,0.00,weatherlink.com 1.10,2013-10-26 06:03:00,
2013-10-25 23:18:00,51.3,48.0,30.10,SE,130,0.0,-999.0,89,-99.99,,,0.00,weatherlink.com 1.10,2013-10-26 06:18:00,
2013-10-25 23:33:00,51.1,48.0,30.11,SE,130,0.0,-999.0,90,-99.99,,,0.00,weatherlink.com 1.10,2013-10-26 06:33:00,
2013-10-25 23:48:00,51.0,48.0,30.11,SE,130,0.0,-999.0,90,-99.99,,,0.00,weatherlink.com 1.10,2013-10-26 06:48:00,